Horseshoe Bay, Texas
Current Conditions -  °F | °C
As of 3:35 AM on Tuesday 21 Oct 2014 (Local Time) from KDZB Reporting Station
Clear Clear  
Wind Chill: 58°   Ceiling: Unl
Heat Index: 58°   Visibility: 10mi
Dew Point: 58°   Wind: 0mph
Humidity: 100%   Direction: NA
Pressure: 30.04"   Gusts: NA
Location:  30.5928°N, 98.3476°W
Report Text: KDZB 210835Z AUTO 00000KT 10SM CLR 15/15 A3004 RMK AO2 T01470147
Loading
Personal Weather Stations






























Interactive Weather Map
Tropical Storm Tracking
New forecast layout! Learn more

10-Day Weather Forecast

Advertisements
Track Severe Weather on mobile